Terminal Aerodrome Forecast
Issued by NWS Buffalo, NY

Home | Current Version | Previous Version | Text Only | Print | Product List | Glossary On
Versions: 1 2 3 4 5 6 7 8 9 10 11 12 13 14 15 16 17 18 19 20 21 22 23 24 25 26 27 28
666
FTUS41 KBUF 082055 AAA
TAFBUF
TAF AMD
KBUF 082055Z 0821/0918 14008KT P6SM BKN050
     FM090300 11007KT 2SM -RASN OVC030
     FM090400 10006KT 2SM -SN OVC025
     FM091000 14005KT P6SM VCSH OVC020
     FM091400 20007KT P6SM OVC015=

USA.gov is the U.S. government's official web portal to all federal, state and local government web resources and services.